createdAt,value
2018-10-17T00:00:11.990Z,15.00
2018-10-17T00:02:40.712Z,16.27
2018-10-17T00:05:10.491Z,16.63
2018-10-17T00:07:39.560Z,15.23
2018-10-17T00:10:09.467Z,16.50
2018-10-17T00:12:38.329Z,18.07
2018-10-17T00:15:07.698Z,17.47
2018-10-17T00:17:36.168Z,17.30
2018-10-17T00:20:04.975Z,17.33
2018-10-17T00:22:33.431Z,16.20
2018-10-17T00:25:02.212Z,16.40
2018-10-17T00:27:30.765Z,16.80
2018-10-17T00:29:59.304Z,14.90
2018-10-17T00:32:27.809Z,16.00
2018-10-17T00:34:58.110Z,16.80
2018-10-17T00:37:26.522Z,15.73
2018-10-17T00:39:55.072Z,17.33
2018-10-17T00:42:23.539Z,16.33
2018-10-17T00:44:52.062Z,17.30
2018-10-17T00:47:20.488Z,17.07
2018-10-17T00:49:48.930Z,17.27
2018-10-17T00:52:17.427Z,16.07
2018-10-17T00:54:46.606Z,17.53
2018-10-17T00:57:15.054Z,15.90
2018-10-17T00:59:43.481Z,15.83
2018-10-17T01:02:12.151Z,15.37
2018-10-17T01:04:40.580Z,15.27
2018-10-17T01:07:09.117Z,16.23
2018-10-17T01:09:37.512Z,16.87
2018-10-17T01:12:06.065Z,17.30
2018-10-17T01:14:34.505Z,16.43
2018-10-17T01:17:03.114Z,17.00
2018-10-17T01:19:31.641Z,18.03
2018-10-17T01:22:00.220Z,16.40
2018-10-17T01:24:28.661Z,15.87
2018-10-17T01:26:57.135Z,15.57
2018-10-17T01:29:25.771Z,16.43
2018-10-17T01:31:54.162Z,18.60
2018-10-17T01:34:22.638Z,17.43
2018-10-17T01:36:51.127Z,16.83
2018-10-17T01:39:19.666Z,17.50
2018-10-17T01:41:48.152Z,17.40
2018-10-17T01:44:16.688Z,17.43
2018-10-17T01:46:45.158Z,16.87
2018-10-17T01:49:13.721Z,15.13
2018-10-17T01:51:42.062Z,15.87
2018-10-17T01:54:10.497Z,16.47
2018-10-17T01:56:39.028Z,16.40
2018-10-17T01:59:07.535Z,16.23
2018-10-17T02:01:35.954Z,15.60
2018-10-17T02:04:04.509Z,16.53
2018-10-17T02:06:32.956Z,15.87
2018-10-17T02:09:01.512Z,15.87
2018-10-17T02:11:29.928Z,15.30
2018-10-17T02:13:58.367Z,15.47
2018-10-17T02:16:26.816Z,16.27
2018-10-17T02:18:55.311Z,16.57
2018-10-17T02:21:23.842Z,23.37
2018-10-17T02:23:52.383Z,22.07
2018-10-17T02:26:20.819Z,19.63
2018-10-17T02:28:49.236Z,17.10
2018-10-17T02:31:17.777Z,15.70
2018-10-17T02:33:46.204Z,14.63
2018-10-17T02:36:14.714Z,15.60
2018-10-17T02:38:43.433Z,14.37
2018-10-17T02:41:11.914Z,15.77
2018-10-17T02:43:40.322Z,15.37
2018-10-17T02:46:08.876Z,14.97
2018-10-17T02:48:37.432Z,15.80
2018-10-17T02:51:05.863Z,16.83
2018-10-17T02:53:34.320Z,16.97
2018-10-17T02:56:02.924Z,16.80
2018-10-17T02:58:31.430Z,16.00
2018-10-17T03:01:00.047Z,15.53
2018-10-17T03:03:28.440Z,16.33
2018-10-17T03:05:56.902Z,15.70
2018-10-17T03:08:25.420Z,15.97
2018-10-17T03:10:54.777Z,16.33
2018-10-17T03:13:23.273Z,16.73
2018-10-17T03:15:51.711Z,16.77
2018-10-17T03:18:20.235Z,16.37
2018-10-17T03:20:48.793Z,15.93
2018-10-17T03:23:17.309Z,14.13
2018-10-17T03:25:45.780Z,15.20
2018-10-17T03:28:14.352Z,15.73
2018-10-17T03:30:42.947Z,15.93
2018-10-17T03:33:11.429Z,16.37
2018-10-17T03:35:39.844Z,17.33
2018-10-17T03:38:08.395Z,17.23
2018-10-17T03:40:36.833Z,16.03
2018-10-17T03:43:05.448Z,16.40
2018-10-17T03:45:34.080Z,16.60
2018-10-17T03:48:02.684Z,16.47
2018-10-17T03:50:31.114Z,15.93
2018-10-17T03:52:59.650Z,16.00
2018-10-17T03:55:28.163Z,16.90
2018-10-17T03:57:56.616Z,15.83
2018-10-17T04:00:25.191Z,16.23
2018-10-17T04:02:53.671Z,16.40
2018-10-17T04:05:22.046Z,16.30
2018-10-17T04:07:50.570Z,17.30
2018-10-17T04:10:19.115Z,16.67
2018-10-17T04:12:47.694Z,16.27
2018-10-17T04:15:16.313Z,17.33
2018-10-17T04:17:44.751Z,16.77
2018-10-17T04:20:13.317Z,16.30
2018-10-17T04:22:45.836Z,16.53
2018-10-17T04:25:14.504Z,14.93
2018-10-17T04:27:42.889Z,16.07
2018-10-17T04:30:11.353Z,17.10
2018-10-17T04:32:39.948Z,16.10
2018-10-17T04:35:08.507Z,15.97
2018-10-17T04:37:36.922Z,16.27
2018-10-17T04:40:05.626Z,17.67
2018-10-17T04:42:34.067Z,16.20
2018-10-17T04:45:02.509Z,16.57
2018-10-17T04:47:31.101Z,16.07
2018-10-17T04:49:59.482Z,15.37
2018-10-17T04:52:27.919Z,15.10
2018-10-17T04:54:56.386Z,16.57
2018-10-17T04:57:25.130Z,15.77
2018-10-17T04:59:53.659Z,15.20
2018-10-17T05:02:22.149Z,16.10
2018-10-17T05:04:50.642Z,16.50
2018-10-17T05:07:19.668Z,15.43
2018-10-17T05:09:48.106Z,15.80
2018-10-17T05:12:16.533Z,15.17
2018-10-17T05:14:45.022Z,16.10
2018-10-17T05:17:13.569Z,17.20
2018-10-17T05:19:41.909Z,17.47
2018-10-17T05:22:10.623Z,16.10
2018-10-17T05:24:39.113Z,15.93
2018-10-17T05:27:07.650Z,15.50
2018-10-17T05:29:36.184Z,15.93
2018-10-17T05:32:04.926Z,15.70
2018-10-17T05:34:33.674Z,17.60
2018-10-17T05:37:02.163Z,16.03
2018-10-17T05:39:37.194Z,17.13
2018-10-17T05:42:06.044Z,16.23
2018-10-17T05:44:34.561Z,16.93
2018-10-17T05:47:02.976Z,16.10
2018-10-17T05:49:32.077Z,17.10
2018-10-17T05:52:00.511Z,16.40
2018-10-17T05:54:29.050Z,16.40
2018-10-17T05:56:57.485Z,16.30
2018-10-17T05:59:25.990Z,16.00
2018-10-17T06:01:55.325Z,15.97
2018-10-17T06:04:23.716Z,17.47
2018-10-17T06:06:52.225Z,15.27
2018-10-17T06:09:20.653Z,15.13
2018-10-17T06:11:49.664Z,14.63
2018-10-17T06:14:18.163Z,15.13
2018-10-17T06:16:47.232Z,14.77
2018-10-17T06:19:15.748Z,13.93
2018-10-17T06:21:44.108Z,15.60
2018-10-17T06:24:12.537Z,14.87
2018-10-17T06:26:40.969Z,15.47
2018-10-17T06:29:09.655Z,16.13
2018-10-17T06:31:38.025Z,16.77
2018-10-17T06:34:06.790Z,15.43
2018-10-17T06:36:35.130Z,16.20
2018-10-17T06:39:04.649Z,16.03
2018-10-17T06:41:33.074Z,19.03
2018-10-17T06:44:01.749Z,19.20
2018-10-17T06:46:30.133Z,19.43
2018-10-17T06:48:58.810Z,19.47
2018-10-17T06:51:27.261Z,21.10
2018-10-17T06:53:55.748Z,19.90
2018-10-17T06:56:24.311Z,18.63
2018-10-17T06:58:52.760Z,17.97
2018-10-17T07:01:21.249Z,19.10
2018-10-17T07:03:49.710Z,16.93
2018-10-17T07:06:18.203Z,16.43
2018-10-17T07:08:47.704Z,17.20
2018-10-17T07:11:16.286Z,16.07
2018-10-17T07:13:44.767Z,17.47
2018-10-17T07:16:13.245Z,17.27
2018-10-17T07:18:41.789Z,15.90
2018-10-17T07:21:10.265Z,16.10
2018-10-17T07:23:38.759Z,16.57
2018-10-17T07:26:07.305Z,13.77
2018-10-17T07:28:35.799Z,16.10
2018-10-17T07:31:04.238Z,15.63
2018-10-17T07:33:32.841Z,16.13
2018-10-17T07:36:01.314Z,16.40
2018-10-17T07:38:29.686Z,17.10
2018-10-17T07:40:58.271Z,16.73
2018-10-17T07:43:26.890Z,17.37
2018-10-17T07:45:55.329Z,19.37
2018-10-17T07:48:23.946Z,18.10
2018-10-17T07:50:52.449Z,16.83
2018-10-17T07:53:21.025Z,14.87
2018-10-17T07:55:49.466Z,14.60
2018-10-17T07:58:17.914Z,14.50
2018-10-17T08:00:46.346Z,14.17
2018-10-17T08:03:14.799Z,15.10
2018-10-17T08:05:43.212Z,14.27
2018-10-17T08:08:11.655Z,14.50
2018-10-17T08:10:40.136Z,14.83
2018-10-17T08:13:08.654Z,16.33
2018-10-17T08:15:37.102Z,15.20
2018-10-17T08:18:05.808Z,16.07
2018-10-17T08:20:34.240Z,16.83
2018-10-17T08:23:02.809Z,14.87
2018-10-17T08:25:31.330Z,16.20
2018-10-17T08:27:59.788Z,15.00
2018-10-17T08:30:28.242Z,15.55
2018-10-17T08:32:56.690Z,15.30
2018-10-17T08:35:25.246Z,14.20
2018-10-17T08:37:54.229Z,13.95
2018-10-17T08:40:22.192Z,13.03
2018-10-17T08:42:50.690Z,13.98
2018-10-17T08:45:19.292Z,13.08
2018-10-17T08:47:47.762Z,13.15
2018-10-17T08:50:16.258Z,12.85
2018-10-17T08:52:44.750Z,12.85
2018-10-17T08:55:13.346Z,12.35
2018-10-17T08:57:42.027Z,12.65
2018-10-17T09:00:10.490Z,11.33
2018-10-17T09:02:38.966Z,12.50
2018-10-17T09:05:07.462Z,11.68
2018-10-17T09:07:36.008Z,12.45
2018-10-17T09:10:04.539Z,10.93
2018-10-17T09:12:33.041Z,11.20
2018-10-17T09:15:01.499Z,11.20
2018-10-17T09:17:30.087Z,10.53
2018-10-17T09:19:58.889Z,10.75
2018-10-17T09:22:27.464Z,11.38
2018-10-17T09:24:55.689Z,10.88
2018-10-17T09:27:24.170Z,11.38
2018-10-17T09:29:52.664Z,11.38
2018-10-17T09:32:21.141Z,11.70
2018-10-17T09:34:49.608Z,11.12
2018-10-17T09:37:18.107Z,11.35
2018-10-17T09:39:46.572Z,12.25
2018-10-17T09:42:15.257Z,11.48
2018-10-17T09:44:43.651Z,12.00
2018-10-17T09:47:12.100Z,11.18
2018-10-17T09:49:40.553Z,12.03
2018-10-17T09:52:09.178Z,10.50
2018-10-17T09:54:37.584Z,11.45
2018-10-17T09:57:06.168Z,11.53
2018-10-17T09:59:34.741Z,10.90
2018-10-17T10:02:03.242Z,11.48
2018-10-17T10:04:31.701Z,11.70
2018-10-17T10:07:00.155Z,11.00
2018-10-17T10:09:28.606Z,11.68
2018-10-17T10:11:57.097Z,11.25
2018-10-17T10:14:25.530Z,10.95
2018-10-17T10:16:54.041Z,11.28
2018-10-17T10:19:22.427Z,10.48
2018-10-17T10:21:50.946Z,12.45
2018-10-17T10:24:19.409Z,11.97
2018-10-17T10:26:47.871Z,11.25
2018-10-17T10:29:16.297Z,12.55
2018-10-17T10:31:44.743Z,12.45
2018-10-17T10:34:13.311Z,12.18
2018-10-17T10:36:41.773Z,10.80
2018-10-17T10:39:11.101Z,11.35
2018-10-17T10:41:40.035Z,11.28
2018-10-17T10:44:08.591Z,11.22
2018-10-17T10:46:36.988Z,12.85
2018-10-17T10:49:05.585Z,12.07
2018-10-17T10:51:34.128Z,11.55
2018-10-17T10:54:02.576Z,10.90
2018-10-17T10:56:31.009Z,12.82
2018-10-17T10:58:59.494Z,12.68
2018-10-17T11:01:27.909Z,11.88
2018-10-17T11:03:56.349Z,11.08
2018-10-17T11:06:24.835Z,11.18
2018-10-17T11:08:53.295Z,11.80
2018-10-17T11:11:21.747Z,12.20
2018-10-17T11:13:50.258Z,12.00
2018-10-17T11:16:18.765Z,11.63
2018-10-17T11:18:47.211Z,11.40
2018-10-17T11:21:15.750Z,12.90
2018-10-17T11:23:44.181Z,12.37
2018-10-17T11:26:12.647Z,12.37
2018-10-17T11:28:41.103Z,11.97
2018-10-17T11:31:09.649Z,12.30
2018-10-17T11:33:38.081Z,12.60
2018-10-17T11:36:06.622Z,11.63
2018-10-17T11:38:35.076Z,11.10
2018-10-17T11:41:03.659Z,11.35
2018-10-17T11:43:32.014Z,11.70
2018-10-17T11:46:00.600Z,11.75
2018-10-17T11:48:29.074Z,11.50
2018-10-17T11:50:57.585Z,12.00
2018-10-17T11:53:26.064Z,12.37
2018-10-17T11:55:54.591Z,13.13
2018-10-17T11:58:23.102Z,12.20
2018-10-17T12:00:51.534Z,13.20
2018-10-17T12:03:20.030Z,13.30
2018-10-17T12:05:48.629Z,13.28
2018-10-17T12:08:16.980Z,14.90
2018-10-17T12:10:49.870Z,15.23
2018-10-17T12:13:18.328Z,13.83
2018-10-17T12:15:46.802Z,13.43
2018-10-17T12:18:15.394Z,12.53
2018-10-17T12:20:43.783Z,12.13
2018-10-17T12:23:12.214Z,11.50
2018-10-17T12:25:40.718Z,10.85
2018-10-17T12:28:09.353Z,12.15
2018-10-17T12:30:37.628Z,12.58
2018-10-17T12:33:06.231Z,14.30
2018-10-17T12:35:34.664Z,12.15
2018-10-17T12:38:03.151Z,13.10
2018-10-17T12:40:31.838Z,12.87
2018-10-17T12:43:00.141Z,12.57
2018-10-17T12:45:28.597Z,13.70
2018-10-17T12:47:57.048Z,14.10
2018-10-17T12:50:25.575Z,14.17
2018-10-17T12:52:54.095Z,14.80
2018-10-17T12:55:22.530Z,14.30
2018-10-17T12:57:50.995Z,16.57
2018-10-17T13:00:19.442Z,17.13
2018-10-17T13:02:47.874Z,18.20
2018-10-17T13:05:16.393Z,19.43
2018-10-17T13:07:44.807Z,19.87
2018-10-17T13:10:13.269Z,20.27
2018-10-17T13:12:42.017Z,17.80
2018-10-17T13:15:12.440Z,19.37
2018-10-17T13:17:41.226Z,18.67
2018-10-17T13:20:09.706Z,20.10
2018-10-17T13:22:38.148Z,20.70
2018-10-17T13:25:06.825Z,22.70
2018-10-17T13:27:35.284Z,22.13
2018-10-17T13:30:04.466Z,21.87
2018-10-17T13:32:32.910Z,20.83
2018-10-17T13:35:01.408Z,20.63
2018-10-17T13:37:29.825Z,27.50
2018-10-17T13:39:58.332Z,29.50
2018-10-17T13:42:26.817Z,26.67
2018-10-17T13:44:55.296Z,25.17
2018-10-17T13:47:23.786Z,22.23
2018-10-17T13:49:52.215Z,20.40
2018-10-17T13:52:20.674Z,17.77
2018-10-17T13:54:49.173Z,17.50
2018-10-17T13:57:17.598Z,18.37
2018-10-17T13:59:46.085Z,17.90
2018-10-17T14:02:14.555Z,18.13
2018-10-17T14:04:42.985Z,17.30
2018-10-17T14:07:11.497Z,15.90
2018-10-17T14:09:39.907Z,15.90
2018-10-17T14:12:08.452Z,16.73
2018-10-17T14:14:36.902Z,16.60
2018-10-17T14:17:05.474Z,15.27
2018-10-17T14:19:33.921Z,15.83
2018-10-17T14:22:02.415Z,14.50
2018-10-17T14:24:30.955Z,14.53
2018-10-17T14:26:59.459Z,14.33
2018-10-17T14:29:27.947Z,13.87
2018-10-17T14:31:56.505Z,15.40
2018-10-17T14:34:25.060Z,15.57
2018-10-17T14:36:53.532Z,14.50
2018-10-17T14:39:22.168Z,15.60
2018-10-17T14:41:50.627Z,14.77
2018-10-17T14:44:19.111Z,14.87
2018-10-17T14:46:47.569Z,16.00
2018-10-17T14:49:16.043Z,25.50
2018-10-17T14:51:44.501Z,17.27
2018-10-17T14:54:13.016Z,16.60
2018-10-17T14:56:41.524Z,16.83
2018-10-17T14:59:10.007Z,19.27
2018-10-17T15:01:38.456Z,16.70
2018-10-17T15:04:06.940Z,20.73
2018-10-17T15:06:35.380Z,18.63
2018-10-17T15:09:04.926Z,21.87
2018-10-17T15:11:33.413Z,20.13
2018-10-17T15:14:01.842Z,20.10
2018-10-17T15:16:30.336Z,17.87
2018-10-17T15:18:58.821Z,19.63
2018-10-17T15:21:27.293Z,17.87
2018-10-17T15:23:55.793Z,20.20
2018-10-17T15:26:24.293Z,20.17
2018-10-17T15:28:53.163Z,23.17
2018-10-17T15:31:21.806Z,20.87
2018-10-17T15:33:50.212Z,22.67
2018-10-17T15:36:18.801Z,23.17
2018-10-17T15:38:47.218Z,20.57
2018-10-17T15:41:15.710Z,22.17
2018-10-17T15:43:44.210Z,21.47
2018-10-17T15:46:12.650Z,21.73
2018-10-17T15:48:41.180Z,20.40
2018-10-17T15:51:09.750Z,21.63
2018-10-17T15:53:38.231Z,20.10
2018-10-17T15:56:06.712Z,23.73
2018-10-17T15:58:35.185Z,21.10
2018-10-17T16:01:03.772Z,26.70
2018-10-17T16:03:32.278Z,31.03
2018-10-17T16:06:00.920Z,24.63
2018-10-17T16:08:29.377Z,26.40
2018-10-17T16:10:57.892Z,20.97
2018-10-17T16:13:26.624Z,18.67
2018-10-17T16:15:55.135Z,16.97
2018-10-17T16:18:23.639Z,17.33
2018-10-17T16:20:52.083Z,17.10
2018-10-17T16:23:20.647Z,17.23
2018-10-17T16:25:49.282Z,16.60
2018-10-17T16:28:18.255Z,16.73
2018-10-17T16:30:47.018Z,16.83
2018-10-17T16:33:15.407Z,16.00
2018-10-17T16:35:44.355Z,16.80
2018-10-17T16:38:12.883Z,18.27
2018-10-17T16:40:41.419Z,19.93
2018-10-17T16:43:09.933Z,17.30
2018-10-17T16:45:39.165Z,20.10
2018-10-17T16:48:07.700Z,19.53
2018-10-17T16:50:36.353Z,19.53
2018-10-17T16:53:04.978Z,19.27
2018-10-17T16:55:33.487Z,17.63
2018-10-17T16:58:02.002Z,17.90
2018-10-17T17:00:31.174Z,18.00
2018-10-17T17:02:59.696Z,18.63
2018-10-17T17:05:28.280Z,17.93
2018-10-17T17:07:57.045Z,17.40
2018-10-17T17:10:26.226Z,19.37
2018-10-17T17:12:54.907Z,21.10
2018-10-17T17:15:23.841Z,20.13
2018-10-17T17:17:52.486Z,20.67
2018-10-17T17:20:21.071Z,20.13
2018-10-17T17:22:50.025Z,19.37
2018-10-17T17:25:18.580Z,19.90
2018-10-17T17:27:47.232Z,18.30
2018-10-17T17:30:18.094Z,20.23
2018-10-17T17:32:48.453Z,20.40
2018-10-17T17:35:17.159Z,20.83
2018-10-17T17:37:46.116Z,18.50
2018-10-17T17:40:15.327Z,19.63
2018-10-17T17:42:44.053Z,20.07
2018-10-17T17:45:13.546Z,20.53
2018-10-17T17:47:47.910Z,21.17
2018-10-17T17:50:16.753Z,21.53
2018-10-17T17:52:45.567Z,21.60
2018-10-17T17:55:14.501Z,20.77
2018-10-17T17:57:43.373Z,22.37
2018-10-17T18:00:12.334Z,21.50
2018-10-17T18:02:41.208Z,21.73
2018-10-17T18:05:10.271Z,20.53
2018-10-17T18:07:39.183Z,21.80
2018-10-17T18:10:08.793Z,21.50
2018-10-17T18:12:38.009Z,21.20
2018-10-17T18:15:08.580Z,22.07
2018-10-17T18:17:38.165Z,21.70
2018-10-17T18:20:08.854Z,21.77
2018-10-17T18:22:39.039Z,21.43
2018-10-17T18:25:09.843Z,22.60
2018-10-17T18:27:40.547Z,22.57
2018-10-17T18:30:09.654Z,23.27
2018-10-17T18:32:38.698Z,21.80
2018-10-17T18:35:07.917Z,22.20
2018-10-17T18:37:38.343Z,21.27
2018-10-17T18:40:07.810Z,21.23
2018-10-17T18:42:37.259Z,27.17
2018-10-17T18:45:06.741Z,41.00
2018-10-17T18:47:35.763Z,40.53
2018-10-17T18:50:06.018Z,38.53
2018-10-17T18:52:35.898Z,30.07
2018-10-17T18:55:06.251Z,26.97
2018-10-17T18:57:35.953Z,24.00
2018-10-17T19:00:06.217Z,24.67
2018-10-17T19:02:36.586Z,23.63
2018-10-17T19:05:06.508Z,22.10
2018-10-17T19:07:35.531Z,23.00
2018-10-17T19:10:04.688Z,24.40
2018-10-17T19:12:33.709Z,24.13
2018-10-17T19:15:02.916Z,26.00
2018-10-17T19:17:31.926Z,25.77
2018-10-17T19:20:02.114Z,23.23
2018-10-17T19:22:31.295Z,23.40
2018-10-17T19:25:00.405Z,22.03
2018-10-17T19:27:29.484Z,22.10
2018-10-17T19:29:59.159Z,21.43
2018-10-17T19:32:28.209Z,21.47
2018-10-17T19:34:57.391Z,23.27
2018-10-17T19:37:27.204Z,23.63
2018-10-17T19:39:57.682Z,24.17
2018-10-17T19:42:27.379Z,24.23
2018-10-17T19:44:58.106Z,25.03
2018-10-17T19:47:28.038Z,23.87
2018-10-17T19:50:01.660Z,25.33
2018-10-17T19:52:31.243Z,24.07
2018-10-17T19:57:27.939Z,22.97
2018-10-17T19:59:57.783Z,23.73
2018-10-17T20:02:26.807Z,24.73
2018-10-17T20:04:55.830Z,24.10
2018-10-17T20:07:25.036Z,23.87
2018-10-17T20:09:54.002Z,22.83
2018-10-17T20:12:23.053Z,24.20
2018-10-17T20:14:52.092Z,23.97
2018-10-17T20:17:21.079Z,23.77
2018-10-17T20:19:50.116Z,22.87
2018-10-17T20:22:19.150Z,21.40
2018-10-17T20:24:48.090Z,21.87
2018-10-17T20:27:17.151Z,21.50
2018-10-17T20:29:46.971Z,25.40
2018-10-17T20:32:15.758Z,22.30
2018-10-17T20:34:44.438Z,24.27
2018-10-17T20:37:13.214Z,22.93
2018-10-17T20:39:41.937Z,21.50
2018-10-17T20:42:10.921Z,22.27
2018-10-17T20:44:39.638Z,22.93
2018-10-17T20:47:08.426Z,23.00
2018-10-17T20:49:36.975Z,23.03
2018-10-17T20:52:05.607Z,22.30
2018-10-17T20:54:34.139Z,23.17
2018-10-17T20:57:02.628Z,23.17
2018-10-17T20:59:31.168Z,21.57
2018-10-17T21:01:59.938Z,25.30
2018-10-17T21:04:28.322Z,25.50
2018-10-17T21:06:56.806Z,23.47
2018-10-17T21:09:25.267Z,23.20
2018-10-17T21:11:53.696Z,23.93
2018-10-17T21:14:22.142Z,23.27
2018-10-17T21:16:50.561Z,21.80
2018-10-17T21:19:19.022Z,26.30
2018-10-17T21:21:47.479Z,25.20
2018-10-17T21:24:16.021Z,24.30
2018-10-17T21:26:44.474Z,22.17
2018-10-17T21:29:12.915Z,22.13
2018-10-17T21:31:41.409Z,22.70
2018-10-17T21:34:09.875Z,21.30
2018-10-17T21:36:38.341Z,22.53
2018-10-17T21:39:10.941Z,21.73
2018-10-17T21:41:39.387Z,22.57
2018-10-17T21:44:09.129Z,22.17
2018-10-17T21:46:37.723Z,22.17
2018-10-17T21:49:06.668Z,23.47
2018-10-17T21:51:35.142Z,24.10
2018-10-17T21:54:03.833Z,26.00
2018-10-17T21:56:32.284Z,31.17
2018-10-17T21:59:00.729Z,26.80
2018-10-17T22:01:29.233Z,25.43
2018-10-17T22:03:57.687Z,24.20
2018-10-17T22:06:32.825Z,27.80
2018-10-17T22:09:01.334Z,30.43
2018-10-17T22:11:29.867Z,28.10
2018-10-17T22:13:58.340Z,25.77
2018-10-17T22:16:31.015Z,23.73
2018-10-17T22:18:59.588Z,20.80
2018-10-17T22:21:27.988Z,21.20
2018-10-17T22:23:56.462Z,21.33
2018-10-17T22:26:24.976Z,21.57
2018-10-17T22:28:53.474Z,21.70
2018-10-17T22:31:21.916Z,22.27
2018-10-17T22:33:51.651Z,24.30
2018-10-17T22:36:20.088Z,28.67
2018-10-17T22:38:48.512Z,27.80
2018-10-17T22:41:17.088Z,23.33
2018-10-17T22:43:45.476Z,22.07
2018-10-17T22:46:13.941Z,23.27
2018-10-17T22:48:42.389Z,22.47
2018-10-17T22:51:10.883Z,23.93
2018-10-17T22:53:39.442Z,21.87
2018-10-17T22:56:07.941Z,21.57
2018-10-17T22:58:36.378Z,21.37
2018-10-17T23:01:05.368Z,21.97
2018-10-17T23:03:33.856Z,21.87
2018-10-17T23:06:02.280Z,23.20
2018-10-17T23:08:30.730Z,22.63
2018-10-17T23:10:59.140Z,21.83
2018-10-17T23:13:27.629Z,23.87
2018-10-17T23:15:56.049Z,22.97
2018-10-17T23:18:24.515Z,21.87
2018-10-17T23:20:52.952Z,24.60
2018-10-17T23:23:21.400Z,24.63
2018-10-17T23:25:49.832Z,24.40
2018-10-17T23:28:18.537Z,23.93
2018-10-17T23:30:47.000Z,23.93
2018-10-17T23:33:15.460Z,21.83
2018-10-17T23:35:43.887Z,21.87
2018-10-17T23:38:12.745Z,23.77
2018-10-17T23:40:41.179Z,26.93
2018-10-17T23:43:10.336Z,27.53
2018-10-17T23:45:39.022Z,28.83
2018-10-17T23:48:08.213Z,26.40
2018-10-17T23:50:37.005Z,27.47
2018-10-17T23:53:05.788Z,26.53
2018-10-17T23:55:34.173Z,26.73
2018-10-17T23:58:02.945Z,25.70
